St-Mathieu-De-Beloeil Airport

CSB3 · Quebec, 加拿大

罗盘
风向 的 风向 250° St-Mathieu-De-Beloeil Airport 15/33
风向 到 风: 23 kt, 阵阵 34 kt, 6 beaufort

4 kt

23 kt
改变
0 2.000 4.000 6.000 8.000 10.000
BKN 4.600 ft
OVC 7.100 ft
SPECI CYHU 011054Z AUTO 25023G34KT 9SM BKN046 OVC071 01/M06 A2975 RMK SLP076

METAR St-Mathieu-De-Beloeil Airport - CSB3

St-Mathieu-De-Beloeil Airport是,加拿大中的小机场。 该机场有一条跑道: 15/33. 该领域的国际民航组织标志是CSB3.

这份报告是针对2022年12月1日 05:54, 当地时间在Montréal / Saint-Hubert Airport进行的。

机场观察

风向为250°,速度为23 kt。 已测得34 kt的阵风。

可见度为9 mi。

有碎云在4.600 ft的高度 和 乌云密布在7.100 ft的高度。 破损或更高的上限为4.600 ft。

温度为1 °C,阵风为-8 °C。 露点为-6 °C,相对湿度为60%。 海平面上的气压为29,75 inHg (QNH)。

白天

今天,太阳从07:13升起,在16:11降落。 这适用于St-Mathieu-De-Beloeil Airport,世界夏令时可能有所不同。 当地时间与世界标准时间之间的时差为-5 小时。 当前,没有夏令时有效。

公司介绍

我们没有关于这个机场的公司信息。

体会

到Vliegles.nl去找飞行课程,跳伞和其他飞行体验。 浏览页面,了解St-Mathieu-De-Beloeil Airport附近所有可用的活动。 你也可以使用搜索功能来寻找你所在地附近的特定飞行课程、跳伞或其他飞行体验。

跑道

Id 标题 侧风 逆风 侧风 %
15/33 150°-330° 23-33 kt 4-6 kt 98 %

逆风成分最大的方向会被突出显示,并用于横风计算。 这并不一定意味着这个方向在使用。

乌云

4.600 ft BKN 碎云
7.100 ft OVC 乌云密布

温度 & 天气

温度 1 °C
露点 -6 °C
相对湿度 60%
风寒 -8 °C
Kp-index 4 (0-9)

评论

SLP076海平面压力为29,75 inHg (29,75 inHg)

白天

日出
07:13 (1:04)
中午
11:42
日落
16:11

小工具

你想在你的网站上有一个关于St-Mathieu-De-Beloeil Airport的当前航空天气(METAR)的小部件吗?

显示HTML代码

我们和第三方通过cookies跟踪您在我们网站上的互联网行为。如果你继续,我们认为你同意我们的饼干政策